createdAt,value
2019-03-31T00:01:41.456Z,12.37
2019-03-31T00:04:08.675Z,12.77
2019-03-31T00:06:36.189Z,10.10
2019-03-31T00:09:05.337Z,10.03
2019-03-31T00:11:32.589Z,8.40
2019-03-31T00:13:59.765Z,7.83
2019-03-31T00:16:27.144Z,11.03
2019-03-31T00:18:54.475Z,11.83
2019-03-31T00:21:21.654Z,14.63
2019-03-31T00:23:48.766Z,10.93
2019-03-31T00:26:15.941Z,9.20
2019-03-31T00:28:43.089Z,10.00
2019-03-31T00:31:21.597Z,10.90
2019-03-31T00:33:39.494Z,10.57
2019-03-31T00:36:06.679Z,9.03
2019-03-31T00:38:33.862Z,9.87
2019-03-31T00:41:01.228Z,7.23
2019-03-31T00:43:28.459Z,11.67
2019-03-31T00:45:55.662Z,12.10
2019-03-31T00:48:23.047Z,11.80
2019-03-31T00:50:50.244Z,11.30
2019-03-31T00:53:17.440Z,11.70
2019-03-31T00:55:44.631Z,9.93
2019-03-31T00:58:11.912Z,10.97
2019-03-31T01:01:10.604Z,14.60
2019-03-31T01:03:38.952Z,9.17
2019-03-31T01:06:06.215Z,16.47
2019-03-31T01:08:33.996Z,10.07
2019-03-31T01:11:06.272Z,9.93
2019-03-31T01:13:33.994Z,12.13
2019-03-31T01:16:01.484Z,11.93
2019-03-31T01:18:28.849Z,7.90
2019-03-31T01:20:56.143Z,8.07
2019-03-31T01:23:23.318Z,8.77
2019-03-31T01:25:50.779Z,9.93
2019-03-31T01:28:17.951Z,7.47
2019-03-31T01:30:45.143Z,8.10
2019-03-31T01:33:12.396Z,7.97
2019-03-31T01:35:39.795Z,10.07
2019-03-31T01:38:06.990Z,9.97
2019-03-31T01:40:34.281Z,10.10
2019-03-31T01:43:01.642Z,10.53
2019-03-31T01:45:28.848Z,8.07
2019-03-31T01:47:56.076Z,9.60
2019-03-31T01:50:24.080Z,6.97
2019-03-31T01:52:51.248Z,8.43
2019-03-31T01:55:18.473Z,10.27
2019-03-31T01:57:45.780Z,8.17
2019-03-31T02:00:26.074Z,10.03
2019-03-31T02:02:53.245Z,5.37
2019-03-31T02:05:20.520Z,6.17
2019-03-31T02:07:47.768Z,8.20
2019-03-31T02:10:14.911Z,8.10
2019-03-31T02:12:43.176Z,6.80
2019-03-31T02:15:10.512Z,7.50
2019-03-31T02:17:37.720Z,10.63
2019-03-31T02:20:05.181Z,6.23
2019-03-31T02:22:32.374Z,8.73
2019-03-31T02:24:59.685Z,6.97
2019-03-31T02:27:26.793Z,6.27
2019-03-31T02:29:54.045Z,6.67
2019-03-31T02:32:23.918Z,6.03
2019-03-31T02:34:50.464Z,9.50
2019-03-31T02:37:17.657Z,7.43
2019-03-31T02:39:46.818Z,13.17
2019-03-31T02:42:14.277Z,11.60
2019-03-31T02:44:41.464Z,9.77
2019-03-31T02:47:08.704Z,10.47
2019-03-31T02:49:36.026Z,9.43
2019-03-31T02:52:03.231Z,7.30
2019-03-31T02:54:30.531Z,7.63
2019-03-31T02:56:57.826Z,9.27
2019-03-31T02:59:25.100Z,10.13
2019-03-31T03:01:52.380Z,8.07
2019-03-31T03:04:19.590Z,8.53
2019-03-31T03:06:47.101Z,7.80
2019-03-31T03:09:15.081Z,8.00
2019-03-31T03:11:44.046Z,5.70
2019-03-31T03:14:12.169Z,14.53
2019-03-31T03:16:39.438Z,10.53
2019-03-31T03:19:06.643Z,9.10
2019-03-31T03:21:33.828Z,9.33
2019-03-31T03:24:01.061Z,9.63
2019-03-31T03:26:28.409Z,9.70
2019-03-31T03:28:55.547Z,7.87
2019-03-31T03:31:22.960Z,8.83
2019-03-31T03:33:50.197Z,14.63
2019-03-31T03:36:17.492Z,9.83
2019-03-31T03:38:44.787Z,7.67
2019-03-31T03:41:12.106Z,8.17
2019-03-31T03:43:54.158Z,8.67
2019-03-31T03:46:08.584Z,7.03
2019-03-31T03:48:35.887Z,5.63
2019-03-31T03:51:03.189Z,6.63
2019-03-31T03:53:30.402Z,5.50
2019-03-31T03:55:57.667Z,6.27
2019-03-31T03:58:24.881Z,7.03
2019-03-31T04:00:52.109Z,7.43
2019-03-31T04:03:29.921Z,6.63
2019-03-31T04:05:49.859Z,7.03
2019-03-31T04:08:17.053Z,8.50
2019-03-31T04:11:11.211Z,7.67
2019-03-31T04:13:38.418Z,9.63
2019-03-31T04:16:05.582Z,6.87
2019-03-31T04:18:32.799Z,8.73
2019-03-31T04:21:01.037Z,6.03
2019-03-31T04:23:28.230Z,6.07
2019-03-31T04:25:55.412Z,6.43
2019-03-31T04:28:22.686Z,5.80
2019-03-31T04:30:49.787Z,9.37
2019-03-31T04:33:17.019Z,6.60
2019-03-31T04:35:44.189Z,7.43
2019-03-31T04:38:11.256Z,7.07
2019-03-31T04:40:38.499Z,8.37
2019-03-31T04:43:05.973Z,6.60
2019-03-31T04:45:33.132Z,6.53
2019-03-31T04:48:00.404Z,9.30
2019-03-31T04:50:27.828Z,7.03
2019-03-31T04:52:55.038Z,7.50
2019-03-31T04:55:22.373Z,6.73
2019-03-31T04:57:49.766Z,8.80
2019-03-31T05:00:16.928Z,8.47
2019-03-31T05:02:44.177Z,6.43
2019-03-31T05:05:11.351Z,11.73
2019-03-31T05:07:40.515Z,8.23
2019-03-31T05:10:07.855Z,10.33
2019-03-31T05:12:35.080Z,9.10
2019-03-31T05:15:02.401Z,8.47
2019-03-31T05:17:29.630Z,5.23
2019-03-31T05:19:56.837Z,6.47
2019-03-31T05:22:24.038Z,6.43
2019-03-31T05:24:51.256Z,6.97
2019-03-31T05:27:18.494Z,9.23
2019-03-31T05:29:45.718Z,5.83
2019-03-31T05:32:13.043Z,9.17
2019-03-31T05:34:40.219Z,8.40
2019-03-31T05:37:07.576Z,7.10
2019-03-31T05:39:34.796Z,7.23
2019-03-31T05:42:03.045Z,9.53
2019-03-31T05:44:30.426Z,8.40
2019-03-31T05:46:57.646Z,7.73
2019-03-31T05:49:26.125Z,10.87
2019-03-31T05:51:53.404Z,17.20
2019-03-31T05:54:20.646Z,7.53
2019-03-31T05:56:47.922Z,10.27
2019-03-31T05:59:15.301Z,9.07
2019-03-31T06:01:42.507Z,11.80
2019-03-31T06:04:09.817Z,14.17
2019-03-31T06:06:37.363Z,10.50
2019-03-31T06:09:05.919Z,10.20
2019-03-31T06:11:33.174Z,11.23
2019-03-31T06:14:00.336Z,11.70
2019-03-31T06:16:27.801Z,13.60
2019-03-31T06:18:55.096Z,10.27
2019-03-31T06:21:22.325Z,13.60
2019-03-31T06:23:49.488Z,10.93
2019-03-31T06:26:16.765Z,15.93
2019-03-31T06:28:44.016Z,16.50
2019-03-31T06:31:11.520Z,15.13
2019-03-31T06:33:38.840Z,20.77
2019-03-31T06:36:06.043Z,18.33
2019-03-31T06:38:33.283Z,20.90
2019-03-31T06:41:00.564Z,15.83
2019-03-31T06:43:27.941Z,22.17
2019-03-31T06:45:55.341Z,21.30
2019-03-31T06:48:22.566Z,23.93
2019-03-31T06:50:49.944Z,20.67
2019-03-31T06:53:17.392Z,20.90
2019-03-31T06:55:44.586Z,26.03
2019-03-31T06:58:11.833Z,24.80
2019-03-31T07:00:39.245Z,20.13
2019-03-31T07:03:06.619Z,21.83
2019-03-31T07:05:33.897Z,18.10
2019-03-31T07:08:01.199Z,17.27
2019-03-31T07:10:28.589Z,20.53
2019-03-31T07:12:55.776Z,22.77
2019-03-31T07:15:23.439Z,21.70
2019-03-31T07:17:50.879Z,20.43
2019-03-31T07:20:18.192Z,21.17
2019-03-31T07:22:45.465Z,19.77
2019-03-31T07:25:14.375Z,22.00
2019-03-31T07:27:41.629Z,17.27
2019-03-31T07:30:09.721Z,21.57
2019-03-31T07:32:38.548Z,19.97
2019-03-31T07:35:17.928Z,22.77
2019-03-31T07:37:46.640Z,20.80
2019-03-31T07:40:08.770Z,24.67
2019-03-31T07:42:35.954Z,18.70
2019-03-31T07:45:03.865Z,22.00
2019-03-31T07:47:31.065Z,23.10
2019-03-31T07:49:58.409Z,23.23
2019-03-31T07:52:25.714Z,20.83
2019-03-31T07:54:54.131Z,19.33
2019-03-31T07:57:22.344Z,20.80
2019-03-31T07:59:49.698Z,20.07
2019-03-31T08:02:16.895Z,20.87
2019-03-31T08:04:44.123Z,17.10
2019-03-31T08:07:11.414Z,14.93
2019-03-31T08:09:38.772Z,17.80
2019-03-31T08:12:06.123Z,15.27
2019-03-31T08:14:33.355Z,16.80
2019-03-31T08:17:00.635Z,17.03
2019-03-31T08:19:27.887Z,17.83
2019-03-31T08:21:55.143Z,16.10
2019-03-31T08:24:22.596Z,16.77
2019-03-31T08:26:49.876Z,17.43
2019-03-31T08:29:17.113Z,16.33
2019-03-31T08:31:44.540Z,17.57
2019-03-31T08:34:11.744Z,18.37
2019-03-31T08:36:38.993Z,17.13
2019-03-31T08:39:07.465Z,17.27
2019-03-31T08:41:34.663Z,19.00
2019-03-31T08:44:02.015Z,18.90
2019-03-31T08:46:29.293Z,17.97
2019-03-31T08:48:56.529Z,17.20
2019-03-31T08:51:23.928Z,18.37
2019-03-31T08:53:51.045Z,17.40
2019-03-31T08:56:18.238Z,19.03
2019-03-31T08:58:45.429Z,17.47
2019-03-31T09:01:14.754Z,19.10
2019-03-31T09:03:41.881Z,18.73
2019-03-31T09:06:09.274Z,20.77
2019-03-31T09:08:36.460Z,21.47
2019-03-31T09:11:03.684Z,21.47
2019-03-31T09:13:30.769Z,21.20
2019-03-31T09:15:58.111Z,18.47
2019-03-31T09:18:25.202Z,20.27
2019-03-31T09:20:52.447Z,20.87
2019-03-31T09:23:19.769Z,21.00
2019-03-31T09:25:47.753Z,21.13
2019-03-31T09:28:15.337Z,23.23
2019-03-31T09:30:43.273Z,21.83
2019-03-31T09:33:10.463Z,20.53
2019-03-31T09:35:37.857Z,19.77
2019-03-31T09:38:05.194Z,23.17
2019-03-31T09:40:32.553Z,20.53
2019-03-31T09:42:59.680Z,17.53
2019-03-31T09:45:26.968Z,18.33
2019-03-31T09:47:54.068Z,20.10
2019-03-31T09:50:21.342Z,20.47
2019-03-31T09:52:48.621Z,20.43
2019-03-31T09:55:15.815Z,19.60
2019-03-31T09:57:42.899Z,21.03
2019-03-31T10:00:10.941Z,23.23
2019-03-31T10:02:38.383Z,24.10
2019-03-31T10:05:06.117Z,21.57
2019-03-31T10:07:33.622Z,17.90
2019-03-31T10:10:01.064Z,21.10
2019-03-31T10:12:28.235Z,20.63
2019-03-31T10:14:55.508Z,23.17
2019-03-31T10:17:22.692Z,20.90
2019-03-31T10:19:49.875Z,20.57
2019-03-31T10:22:17.135Z,21.53
2019-03-31T10:24:44.200Z,22.57
2019-03-31T10:27:11.260Z,19.00
2019-03-31T10:29:38.653Z,19.90
2019-03-31T10:32:05.819Z,22.17
2019-03-31T10:34:32.932Z,22.77
2019-03-31T10:37:00.357Z,22.93
2019-03-31T10:39:27.535Z,21.77
2019-03-31T10:41:54.623Z,19.13
2019-03-31T10:44:21.814Z,19.53
2019-03-31T10:46:49.133Z,19.23
2019-03-31T10:49:16.338Z,20.37
2019-03-31T10:51:43.548Z,20.90
2019-03-31T10:54:10.711Z,18.70
2019-03-31T10:56:37.901Z,19.55
2019-03-31T10:59:05.093Z,20.80
2019-03-31T11:01:32.169Z,19.83
2019-03-31T11:03:59.360Z,19.37
2019-03-31T11:06:26.576Z,17.07
2019-03-31T11:08:53.731Z,17.13
2019-03-31T11:11:20.918Z,18.90
2019-03-31T11:13:48.012Z,18.63
2019-03-31T11:16:15.236Z,16.67
2019-03-31T11:18:42.452Z,16.07
2019-03-31T11:21:15.864Z,16.33
2019-03-31T11:23:43.138Z,16.93
2019-03-31T11:26:10.481Z,16.97
2019-03-31T11:28:37.548Z,17.83
2019-03-31T11:31:04.724Z,16.97
2019-03-31T11:33:31.796Z,19.90
2019-03-31T11:35:58.999Z,22.43
2019-03-31T11:38:26.125Z,18.40
2019-03-31T11:40:53.303Z,19.57
2019-03-31T11:43:20.631Z,19.27
2019-03-31T11:45:47.805Z,18.13
2019-03-31T11:48:15.039Z,16.03
2019-03-31T11:50:42.264Z,13.30
2019-03-31T11:53:09.569Z,12.67
2019-03-31T11:55:36.744Z,11.47
2019-03-31T11:58:04.280Z,12.37
2019-03-31T12:00:34.671Z,13.30
2019-03-31T12:03:01.989Z,8.87
2019-03-31T12:05:29.296Z,12.43
2019-03-31T12:07:56.604Z,8.33
2019-03-31T12:10:23.876Z,14.93
2019-03-31T12:12:51.158Z,12.33
2019-03-31T12:15:18.338Z,14.63
2019-03-31T12:17:45.625Z,13.07
2019-03-31T12:20:13.006Z,9.83
2019-03-31T12:22:41.287Z,13.23
2019-03-31T12:25:08.581Z,10.03
2019-03-31T12:27:35.829Z,9.50
2019-03-31T12:30:03.556Z,11.97
2019-03-31T12:32:30.741Z,11.07
2019-03-31T12:34:57.921Z,10.50
2019-03-31T12:37:24.996Z,12.43
2019-03-31T12:39:52.200Z,12.10
2019-03-31T12:42:19.454Z,8.57
2019-03-31T12:44:46.631Z,8.43
2019-03-31T12:47:13.895Z,12.60
2019-03-31T12:49:41.136Z,7.67
2019-03-31T12:52:08.295Z,8.30
2019-03-31T12:54:35.491Z,9.80
2019-03-31T12:57:02.705Z,8.27
2019-03-31T12:59:29.792Z,6.63
2019-03-31T13:01:57.097Z,6.43
2019-03-31T13:04:24.293Z,8.33
2019-03-31T13:06:51.463Z,6.87
2019-03-31T13:09:18.637Z,9.10
2019-03-31T13:11:45.841Z,8.83
2019-03-31T13:14:13.016Z,6.23
2019-03-31T13:16:40.409Z,9.77
2019-03-31T13:19:07.488Z,7.77
2019-03-31T13:21:34.617Z,7.47
2019-03-31T13:24:01.892Z,7.33
2019-03-31T13:26:29.087Z,6.27
2019-03-31T13:28:56.455Z,10.50
2019-03-31T13:31:23.939Z,7.43
2019-03-31T13:33:51.659Z,6.20
2019-03-31T13:36:18.805Z,9.47
2019-03-31T13:38:45.972Z,8.23
2019-03-31T13:41:13.145Z,7.80
2019-03-31T13:43:40.331Z,7.53
2019-03-31T13:46:07.447Z,6.93
2019-03-31T13:48:34.728Z,8.40
2019-03-31T13:51:01.923Z,10.40
2019-03-31T13:53:29.178Z,8.13
2019-03-31T13:55:56.380Z,7.70
2019-03-31T13:58:23.991Z,8.23
2019-03-31T14:00:52.440Z,7.10
2019-03-31T14:03:19.528Z,7.43
2019-03-31T14:05:46.715Z,5.67
2019-03-31T14:08:24.996Z,6.93
2019-03-31T14:10:43.090Z,7.77
2019-03-31T14:13:10.271Z,8.97
2019-03-31T14:15:37.453Z,6.97
2019-03-31T14:18:04.769Z,4.83
2019-03-31T14:20:32.243Z,5.93
2019-03-31T14:22:59.431Z,6.30
2019-03-31T14:25:26.540Z,4.37
2019-03-31T14:27:53.730Z,6.50
2019-03-31T14:30:21.526Z,5.57
2019-03-31T14:32:48.743Z,5.40
2019-03-31T14:35:16.011Z,7.63
2019-03-31T14:37:44.012Z,5.77
2019-03-31T14:40:11.408Z,5.50
2019-03-31T14:42:38.739Z,5.10
2019-03-31T14:45:30.267Z,6.60
2019-03-31T14:47:59.380Z,5.33
2019-03-31T14:50:31.349Z,5.17
2019-03-31T14:52:58.634Z,3.77
2019-03-31T14:55:25.699Z,5.43
2019-03-31T14:57:52.899Z,6.10
2019-03-31T15:00:20.200Z,6.10
2019-03-31T15:02:47.449Z,6.10
2019-03-31T15:05:14.781Z,5.37
2019-03-31T15:07:42.111Z,6.17
2019-03-31T15:10:09.304Z,5.13
2019-03-31T15:12:36.380Z,5.10
2019-03-31T15:15:03.827Z,4.43
2019-03-31T15:17:31.011Z,4.47
2019-03-31T15:19:58.196Z,9.07
2019-03-31T15:22:25.374Z,4.20
2019-03-31T15:24:52.580Z,4.17
2019-03-31T15:27:19.805Z,4.07
2019-03-31T15:29:46.886Z,4.67
2019-03-31T15:32:14.104Z,3.00
2019-03-31T15:34:41.279Z,4.73
2019-03-31T15:37:08.557Z,6.43
2019-03-31T15:39:36.108Z,5.27
2019-03-31T15:42:03.338Z,5.37
2019-03-31T15:44:30.554Z,7.43
2019-03-31T15:46:57.664Z,4.03
2019-03-31T15:49:24.723Z,6.13
2019-03-31T15:51:51.926Z,4.60
2019-03-31T15:54:19.178Z,5.97
2019-03-31T15:56:46.354Z,4.87
2019-03-31T15:59:13.982Z,4.17
2019-03-31T16:01:41.349Z,3.57
2019-03-31T16:04:08.601Z,3.33
2019-03-31T16:06:35.924Z,4.93
2019-03-31T16:09:05.881Z,5.43
2019-03-31T16:11:32.397Z,3.47
2019-03-31T16:13:59.036Z,4.03
2019-03-31T16:16:25.568Z,4.07
2019-03-31T16:18:52.265Z,5.37
2019-03-31T16:21:18.963Z,3.73
2019-03-31T16:23:45.513Z,8.17
2019-03-31T16:26:12.142Z,4.40
2019-03-31T16:28:38.728Z,4.40
2019-03-31T16:31:05.469Z,3.30
2019-03-31T16:33:32.115Z,7.43
2019-03-31T16:35:58.913Z,5.97
2019-03-31T16:38:26.073Z,4.83
2019-03-31T16:40:52.750Z,3.43
2019-03-31T16:43:20.197Z,5.20
2019-03-31T16:45:46.866Z,6.13
2019-03-31T16:48:13.814Z,9.67
2019-03-31T16:50:40.637Z,7.07
2019-03-31T16:53:07.320Z,6.03
2019-03-31T16:55:34.064Z,4.50
2019-03-31T16:58:00.622Z,4.13
2019-03-31T17:00:27.251Z,3.47
2019-03-31T17:02:53.995Z,5.93
2019-03-31T17:05:22.186Z,4.10
2019-03-31T17:07:48.943Z,4.37
2019-03-31T17:10:15.578Z,4.73
2019-03-31T17:12:42.260Z,3.30
2019-03-31T17:15:09.056Z,5.50
2019-03-31T17:17:35.796Z,4.07
2019-03-31T17:20:03.161Z,4.20
2019-03-31T17:22:29.702Z,5.77
2019-03-31T17:24:56.297Z,10.63
2019-03-31T17:27:22.876Z,29.23
2019-03-31T17:29:49.610Z,82.27
2019-03-31T17:32:16.437Z,77.53
2019-03-31T17:34:43.044Z,53.87
2019-03-31T17:37:09.807Z,39.67
2019-03-31T17:39:36.447Z,23.07
2019-03-31T17:42:03.158Z,12.93
2019-03-31T17:44:30.858Z,6.23
2019-03-31T17:46:57.590Z,6.50
2019-03-31T17:49:24.453Z,6.47
2019-03-31T17:51:51.151Z,4.57
2019-03-31T17:54:17.739Z,5.30
2019-03-31T17:56:44.432Z,7.40
2019-03-31T17:59:10.973Z,5.37
2019-03-31T18:01:37.755Z,5.43
2019-03-31T18:04:04.370Z,5.17
2019-03-31T18:06:31.068Z,8.27
2019-03-31T18:08:57.799Z,10.27
2019-03-31T18:11:24.579Z,7.77
2019-03-31T18:13:51.155Z,4.53
2019-03-31T18:16:17.781Z,5.27
2019-03-31T18:18:44.425Z,5.83
2019-03-31T18:21:11.085Z,4.33
2019-03-31T18:23:37.774Z,5.93
2019-03-31T18:26:04.299Z,5.93
2019-03-31T18:28:30.850Z,5.50
2019-03-31T18:30:57.382Z,6.77
2019-03-31T18:33:23.956Z,5.27
2019-03-31T18:35:50.649Z,4.10
2019-03-31T18:38:17.292Z,4.77
2019-03-31T18:40:43.953Z,5.70
2019-03-31T18:43:10.726Z,6.40
2019-03-31T18:45:37.268Z,7.63
2019-03-31T18:48:04.053Z,5.53
2019-03-31T18:50:30.589Z,5.63
2019-03-31T18:52:57.344Z,6.37
2019-03-31T18:55:49.299Z,4.80
2019-03-31T18:58:25.015Z,5.70
2019-03-31T19:01:01.743Z,5.83
2019-03-31T19:03:54.233Z,5.60
2019-03-31T19:06:58.517Z,7.23
2019-03-31T19:09:38.207Z,4.17
2019-03-31T19:12:24.605Z,4.87
2019-03-31T19:15:08.620Z,5.47
2019-03-31T19:17:53.672Z,6.63
2019-03-31T19:20:38.568Z,7.07
2019-03-31T19:23:42.734Z,7.23
2019-03-31T19:26:27.923Z,7.60
2019-03-31T19:29:07.724Z,6.60
2019-03-31T19:32:03.035Z,8.00
2019-03-31T19:35:01.921Z,9.00
2019-03-31T19:38:03.408Z,7.83
2019-03-31T19:41:03.016Z,10.20
2019-03-31T19:43:35.341Z,9.37
2019-03-31T19:46:21.617Z,8.57
2019-03-31T19:49:17.119Z,12.23
2019-03-31T19:52:06.421Z,13.77
2019-03-31T19:54:48.472Z,14.90
2019-03-31T19:57:21.986Z,12.53
2019-03-31T20:00:17.804Z,14.13
2019-03-31T20:03:04.151Z,13.23
2019-03-31T20:05:48.976Z,14.17
2019-03-31T20:08:24.689Z,14.13
2019-03-31T20:11:05.084Z,12.47
2019-03-31T20:13:47.066Z,12.37
2019-03-31T20:16:27.157Z,13.97
2019-03-31T20:19:12.011Z,10.53
2019-03-31T20:21:44.535Z,12.73
2019-03-31T20:24:29.470Z,13.67
2019-03-31T20:27:18.568Z,15.63
2019-03-31T20:30:07.910Z,13.43
2019-03-31T20:33:01.065Z,13.00
2019-03-31T20:35:47.270Z,15.57
2019-03-31T20:38:42.736Z,13.30
2019-03-31T20:41:35.183Z,14.33
2019-03-31T20:44:02.033Z,23.10
2019-03-31T20:46:28.536Z,17.80
2019-03-31T20:48:55.136Z,18.37
2019-03-31T20:51:21.804Z,15.40
2019-03-31T20:53:48.594Z,22.50
2019-03-31T20:56:15.276Z,25.40
2019-03-31T20:58:42.013Z,17.40
2019-03-31T21:01:10.236Z,21.30
2019-03-31T21:03:37.162Z,20.73
2019-03-31T21:06:03.874Z,19.90
2019-03-31T21:08:30.402Z,24.47
2019-03-31T21:10:57.059Z,23.93
2019-03-31T21:13:23.851Z,20.70
2019-03-31T21:15:51.534Z,22.10
2019-03-31T21:18:18.047Z,24.20
2019-03-31T21:20:44.773Z,19.70
2019-03-31T21:23:11.451Z,23.53
2019-03-31T21:25:38.190Z,27.57
2019-03-31T21:28:04.821Z,27.90
2019-03-31T21:30:31.508Z,24.60
2019-03-31T21:32:58.211Z,24.57
2019-03-31T21:35:25.018Z,21.50
2019-03-31T21:37:51.825Z,25.70
2019-03-31T21:40:18.544Z,20.57
2019-03-31T21:42:45.185Z,25.83
2019-03-31T21:45:12.028Z,22.70
2019-03-31T21:47:38.595Z,24.40
2019-03-31T21:50:05.625Z,27.73
2019-03-31T21:52:32.206Z,29.80
2019-03-31T21:54:58.806Z,28.07
2019-03-31T21:57:25.437Z,24.47
2019-03-31T21:59:52.020Z,26.20
2019-03-31T22:02:18.803Z,29.87
2019-03-31T22:04:45.346Z,29.77
2019-03-31T22:07:12.964Z,28.63
2019-03-31T22:09:39.535Z,26.50
2019-03-31T22:12:06.059Z,25.23
2019-03-31T22:14:32.710Z,27.70
2019-03-31T22:16:59.231Z,29.63
2019-03-31T22:19:25.853Z,31.33
2019-03-31T22:21:52.572Z,28.70
2019-03-31T22:24:19.087Z,29.50
2019-03-31T22:26:45.629Z,30.10
2019-03-31T22:29:12.136Z,26.77
2019-03-31T22:31:38.792Z,25.03
2019-03-31T22:34:05.444Z,26.47
2019-03-31T22:36:32.013Z,30.53
2019-03-31T22:38:58.578Z,26.67
2019-03-31T22:41:25.268Z,31.17
2019-03-31T22:43:52.013Z,32.37
2019-03-31T22:46:18.537Z,27.73
2019-03-31T22:48:45.171Z,30.93
2019-03-31T22:51:11.812Z,27.63
2019-03-31T22:53:38.658Z,31.63
2019-03-31T22:56:05.341Z,31.13
2019-03-31T22:58:32.064Z,32.73
2019-03-31T23:00:58.827Z,26.87
2019-03-31T23:03:25.527Z,29.23
2019-03-31T23:05:52.167Z,31.20
2019-03-31T23:08:18.683Z,37.77
2019-03-31T23:10:45.420Z,27.57
2019-03-31T23:13:11.933Z,31.63
2019-03-31T23:15:38.652Z,23.73
2019-03-31T23:18:05.144Z,27.17
2019-03-31T23:20:32.667Z,26.83
2019-03-31T23:22:59.164Z,30.83
2019-03-31T23:25:25.693Z,32.10
2019-03-31T23:27:52.209Z,32.67
2019-03-31T23:30:18.745Z,29.90
2019-03-31T23:32:45.293Z,27.20
2019-03-31T23:35:11.833Z,27.93
2019-03-31T23:37:38.360Z,29.90
2019-03-31T23:40:05.376Z,32.77
2019-03-31T23:42:31.919Z,31.63
2019-03-31T23:44:58.532Z,32.67
2019-03-31T23:47:25.198Z,26.40
2019-03-31T23:49:51.741Z,26.63
2019-03-31T23:52:18.436Z,30.57
2019-03-31T23:54:45.052Z,25.83
2019-03-31T23:57:11.564Z,31.07
2019-03-31T23:59:38.107Z,27.40
